createdAt,value
2018-03-21T00:00:30.021Z,6.47
2018-03-21T00:01:03.706Z,7.80
2018-03-21T00:01:37.384Z,10.45
2018-03-21T00:02:11.061Z,8.13
2018-03-21T00:02:44.734Z,7.22
2018-03-21T00:03:18.408Z,7.85
2018-03-21T00:03:52.892Z,6.90
2018-03-21T00:04:26.566Z,5.05
2018-03-21T00:05:00.239Z,11.02
2018-03-21T00:05:34.360Z,5.97
2018-03-21T00:06:08.046Z,11.45
2018-03-21T00:06:41.716Z,4.15
2018-03-21T00:07:15.389Z,8.57
2018-03-21T00:07:49.073Z,6.68
2018-03-21T00:08:23.520Z,9.82
2018-03-21T00:08:57.198Z,7.22
2018-03-21T00:09:30.873Z,10.68
2018-03-21T00:10:04.219Z,5.22
2018-03-21T00:10:38.682Z,4.75
2018-03-21T00:11:12.358Z,6.40
2018-03-21T00:11:46.021Z,8.35
2018-03-21T00:12:19.714Z,7.15
2018-03-21T00:12:53.402Z,6.93
2018-03-21T00:13:27.843Z,14.30
2018-03-21T00:14:01.534Z,9.85
2018-03-21T00:14:35.199Z,4.50
2018-03-21T00:15:08.864Z,5.70
2018-03-21T00:15:42.554Z,11.50
2018-03-21T00:16:16.991Z,11.07
2018-03-21T00:16:50.673Z,6.57
2018-03-21T00:17:24.354Z,7.65
2018-03-21T00:17:58.806Z,5.80
2018-03-21T00:18:32.474Z,6.87
2018-03-21T00:19:06.172Z,5.40
2018-03-21T00:19:39.840Z,9.63
2018-03-21T00:20:13.524Z,4.97
2018-03-21T00:20:48.321Z,7.82
2018-03-21T00:21:22.766Z,6.70
2018-03-21T00:21:56.445Z,5.37
2018-03-21T00:22:30.123Z,5.32
2018-03-21T00:23:04.575Z,4.87
2018-03-21T00:23:39.030Z,6.70
2018-03-21T00:24:13.472Z,6.85
2018-03-21T00:24:47.150Z,8.55
2018-03-21T00:25:20.813Z,4.03
2018-03-21T00:25:55.480Z,6.10
2018-03-21T00:26:29.174Z,11.38
2018-03-21T00:27:02.870Z,5.30
2018-03-21T00:27:36.575Z,4.80
2018-03-21T00:28:10.281Z,4.97
2018-03-21T00:28:44.128Z,9.23
2018-03-21T00:29:17.791Z,5.80
2018-03-21T00:29:51.468Z,6.03
2018-03-21T00:30:25.145Z,8.57
2018-03-21T00:30:59.155Z,8.65
2018-03-21T00:31:32.888Z,8.70
2018-03-21T00:32:06.559Z,7.95
2018-03-21T00:32:40.250Z,7.00
2018-03-21T00:33:13.922Z,7.68
2018-03-21T00:33:47.602Z,9.65
2018-03-21T00:34:22.048Z,7.47
2018-03-21T00:34:55.716Z,6.07
2018-03-21T00:35:29.394Z,5.90
2018-03-21T00:36:03.874Z,11.60
2018-03-21T00:36:37.554Z,7.30
2018-03-21T00:37:11.228Z,7.00
2018-03-21T00:37:44.914Z,12.52
2018-03-21T00:38:18.584Z,5.45
2018-03-21T00:38:52.254Z,7.05
2018-03-21T00:39:25.750Z,4.40
2018-03-21T00:39:59.457Z,4.30
2018-03-21T00:40:34.050Z,5.20
2018-03-21T00:41:07.743Z,10.65
2018-03-21T00:41:41.409Z,7.53
2018-03-21T00:42:15.507Z,7.18
2018-03-21T00:42:49.995Z,8.65
2018-03-21T00:43:23.812Z,8.02
2018-03-21T00:43:58.234Z,12.68
2018-03-21T00:44:31.910Z,9.85
2018-03-21T00:45:06.338Z,4.53
2018-03-21T00:45:40.018Z,7.72
2018-03-21T00:46:13.747Z,13.38
2018-03-21T00:46:47.434Z,9.35
2018-03-21T00:47:21.116Z,13.00
2018-03-21T00:47:54.778Z,6.97
2018-03-21T00:48:28.440Z,6.05
2018-03-21T00:49:02.869Z,7.28
2018-03-21T00:49:37.316Z,7.55
2018-03-21T00:50:11.013Z,11.98
2018-03-21T00:50:44.688Z,6.10
2018-03-21T00:51:18.748Z,5.87
2018-03-21T00:51:53.196Z,6.00
2018-03-21T00:52:26.923Z,7.93
2018-03-21T00:53:01.058Z,5.62
2018-03-21T00:53:34.747Z,7.47
2018-03-21T00:54:08.439Z,5.95
2018-03-21T00:54:42.126Z,7.07
2018-03-21T00:55:15.868Z,4.47
2018-03-21T00:55:49.577Z,5.53
2018-03-21T00:56:23.332Z,10.70
2018-03-21T00:56:57.034Z,9.13
2018-03-21T00:57:30.718Z,6.72
2018-03-21T00:58:04.866Z,6.05
2018-03-21T00:58:39.326Z,12.95
2018-03-21T00:59:13.016Z,8.43
2018-03-21T00:59:47.457Z,6.95
2018-03-21T01:00:21.153Z,7.57
2018-03-21T01:00:55.600Z,11.10
2018-03-21T01:01:29.299Z,7.82
2018-03-21T01:02:02.962Z,9.60
2018-03-21T01:02:37.065Z,5.87
2018-03-21T01:03:10.750Z,4.70
2018-03-21T01:03:44.408Z,4.78
2018-03-21T01:04:18.076Z,6.28
2018-03-21T01:04:51.774Z,5.62
2018-03-21T01:05:25.444Z,5.10
2018-03-21T01:05:59.151Z,5.65
2018-03-21T01:06:32.881Z,6.35
2018-03-21T01:07:07.320Z,7.60
2018-03-21T01:07:41.037Z,9.50
2018-03-21T01:08:14.713Z,7.75
2018-03-21T01:08:48.382Z,7.15
2018-03-21T01:09:22.047Z,3.90
2018-03-21T01:09:56.488Z,5.37
2018-03-21T01:10:30.144Z,8.43
2018-03-21T01:11:04.580Z,6.93
2018-03-21T01:11:38.556Z,11.52
2018-03-21T01:12:12.229Z,4.93
2018-03-21T01:12:46.674Z,4.60
2018-03-21T01:13:20.332Z,11.77
2018-03-21T01:13:54.772Z,9.00
2018-03-21T01:14:28.434Z,6.53
2018-03-21T01:15:02.869Z,4.82
2018-03-21T01:15:36.576Z,6.80
2018-03-21T01:16:10.280Z,5.72
2018-03-21T01:16:44.004Z,4.97
2018-03-21T01:17:18.459Z,6.32
2018-03-21T01:17:52.130Z,3.85
2018-03-21T01:18:25.794Z,4.75
2018-03-21T01:19:00.244Z,4.32
2018-03-21T01:19:33.931Z,5.85
2018-03-21T01:21:44.009Z,7.07
2018-03-21T01:22:17.678Z,8.43
2018-03-21T01:22:51.351Z,5.57
2018-03-21T01:23:25.016Z,4.87
2018-03-21T01:23:59.262Z,9.80
2018-03-21T01:24:32.760Z,11.05
2018-03-21T01:25:06.431Z,7.18
2018-03-21T01:25:40.122Z,2.62
2018-03-21T01:26:13.801Z,6.68
2018-03-21T01:26:47.860Z,7.00
2018-03-21T01:27:22.313Z,11.07
2018-03-21T01:27:56.156Z,5.12
2018-03-21T01:28:30.590Z,7.18
2018-03-21T01:29:04.254Z,6.05
2018-03-21T01:29:38.680Z,7.07
2018-03-21T01:30:12.348Z,6.68
2018-03-21T01:30:46.782Z,5.95
2018-03-21T01:31:20.450Z,9.10
2018-03-21T01:31:54.920Z,5.40
2018-03-21T01:32:28.586Z,9.20
2018-03-21T01:33:02.248Z,4.78
2018-03-21T01:33:35.920Z,12.80
2018-03-21T01:34:10.344Z,7.53
2018-03-21T01:34:44.785Z,12.30
2018-03-21T01:35:18.462Z,4.68
2018-03-21T01:35:52.090Z,12.55
2018-03-21T01:36:25.568Z,8.75
2018-03-21T01:36:59.391Z,8.40
2018-03-21T01:37:32.880Z,10.27
2018-03-21T01:38:06.389Z,6.53
2018-03-21T01:38:39.856Z,8.25
2018-03-21T01:39:14.304Z,7.95
2018-03-21T01:39:47.970Z,6.37
2018-03-21T01:40:21.636Z,6.05
2018-03-21T01:40:56.090Z,4.45
2018-03-21T01:41:29.754Z,7.22
2018-03-21T01:42:03.284Z,6.80
2018-03-21T01:42:36.950Z,8.90
2018-03-21T01:43:10.612Z,10.98
2018-03-21T01:43:45.046Z,6.68
2018-03-21T01:44:18.735Z,9.43
2018-03-21T01:44:52.486Z,5.22
2018-03-21T01:45:26.923Z,5.70
2018-03-21T01:46:00.413Z,3.45
2018-03-21T01:46:34.074Z,7.82
2018-03-21T01:47:08.532Z,5.22
2018-03-21T01:47:42.188Z,9.05
2018-03-21T01:48:15.862Z,4.43
2018-03-21T01:48:49.537Z,13.25
2018-03-21T01:49:23.204Z,4.10
2018-03-21T01:49:56.866Z,7.05
2018-03-21T01:50:30.532Z,7.70
2018-03-21T01:51:04.196Z,6.03
2018-03-21T01:51:38.794Z,5.28
2018-03-21T01:52:12.818Z,8.85
2018-03-21T01:52:45.855Z,5.95
2018-03-21T01:53:19.522Z,6.85
2018-03-21T01:53:53.199Z,6.93
2018-03-21T01:54:26.860Z,9.98
2018-03-21T01:55:01.294Z,6.25
2018-03-21T01:55:34.964Z,4.50
2018-03-21T01:56:08.620Z,4.80
2018-03-21T01:56:42.284Z,6.37
2018-03-21T01:57:16.320Z,6.78
2018-03-21T01:57:50.807Z,9.40
2018-03-21T01:58:24.622Z,5.32
2018-03-21T01:58:59.076Z,9.13
2018-03-21T01:59:32.756Z,11.15
2018-03-21T02:00:06.412Z,9.98
2018-03-21T02:00:40.656Z,9.70
2018-03-21T02:01:14.320Z,5.75
2018-03-21T02:01:47.994Z,5.05
2018-03-21T02:02:22.438Z,7.95
2018-03-21T02:02:56.096Z,6.10
2018-03-21T02:03:30.538Z,5.55
2018-03-21T02:04:04.408Z,10.82
2018-03-21T02:04:38.080Z,5.85
2018-03-21T02:05:12.532Z,4.03
2018-03-21T02:05:46.404Z,8.10
2018-03-21T02:06:19.415Z,3.28
2018-03-21T02:06:53.104Z,6.85
2018-03-21T02:07:27.155Z,7.78
2018-03-21T02:08:01.595Z,8.30
2018-03-21T02:08:35.293Z,4.65
2018-03-21T02:09:08.964Z,6.93
2018-03-21T02:09:42.666Z,8.35
2018-03-21T02:10:16.396Z,2.72
2018-03-21T02:10:50.055Z,6.18
2018-03-21T02:11:23.762Z,5.78
2018-03-21T02:11:57.718Z,5.20
2018-03-21T02:12:31.418Z,5.32
2018-03-21T02:13:04.760Z,4.15
2018-03-21T02:13:39.542Z,8.25
2018-03-21T02:14:13.222Z,4.22
2018-03-21T02:14:46.896Z,5.37
2018-03-21T02:15:20.558Z,4.35
2018-03-21T02:15:55.127Z,6.32
2018-03-21T02:16:28.786Z,10.25
2018-03-21T02:17:02.544Z,6.20
2018-03-21T02:17:37.011Z,6.50
2018-03-21T02:18:10.353Z,5.78
2018-03-21T02:18:44.026Z,5.80
2018-03-21T02:19:18.451Z,7.03
2018-03-21T02:19:52.116Z,3.15
2018-03-21T02:20:26.560Z,9.73
2018-03-21T02:21:00.228Z,4.82
2018-03-21T02:21:33.958Z,5.85
2018-03-21T02:22:07.628Z,6.70
2018-03-21T02:22:41.344Z,8.45
2018-03-21T02:23:15.016Z,6.82
2018-03-21T02:23:48.680Z,5.68
2018-03-21T02:24:22.344Z,5.82
2018-03-21T02:24:56.775Z,6.30
2018-03-21T02:25:30.455Z,4.68
2018-03-21T02:26:04.632Z,8.55
2018-03-21T02:26:38.300Z,7.85
2018-03-21T02:27:11.968Z,5.10
2018-03-21T02:27:45.665Z,5.35
2018-03-21T02:28:19.344Z,6.75
2018-03-21T02:28:53.000Z,6.55
2018-03-21T02:29:27.434Z,6.35
2018-03-21T02:30:01.097Z,6.28
2018-03-21T02:30:35.543Z,10.13
2018-03-21T02:31:09.255Z,5.87
2018-03-21T02:31:42.925Z,5.80
2018-03-21T02:32:16.592Z,9.32
2018-03-21T02:32:50.282Z,3.15
2018-03-21T02:33:24.042Z,9.93
2018-03-21T02:33:58.486Z,7.43
2018-03-21T02:34:32.247Z,10.95
2018-03-21T02:35:06.697Z,4.57
2018-03-21T02:35:40.603Z,3.28
2018-03-21T02:36:14.289Z,4.35
2018-03-21T02:36:47.970Z,6.03
2018-03-21T02:37:21.646Z,5.28
2018-03-21T02:37:55.619Z,7.00
2018-03-21T02:38:30.051Z,2.85
2018-03-21T02:39:03.211Z,4.43
2018-03-21T02:39:37.328Z,11.27
2018-03-21T02:40:11.014Z,5.70
2018-03-21T02:40:44.691Z,4.30
2018-03-21T02:41:19.114Z,3.05
2018-03-21T02:41:52.891Z,6.47
2018-03-21T02:42:26.702Z,5.05
2018-03-21T02:43:00.410Z,6.57
2018-03-21T02:43:35.009Z,6.68
2018-03-21T02:44:08.817Z,8.65
2018-03-21T02:44:42.478Z,10.75
2018-03-21T02:45:16.187Z,5.50
2018-03-21T02:45:49.861Z,5.12
2018-03-21T02:46:23.757Z,5.40
2018-03-21T02:46:57.430Z,7.43
2018-03-21T02:47:31.888Z,3.85
2018-03-21T02:48:05.204Z,2.80
2018-03-21T02:48:39.826Z,7.05
2018-03-21T02:49:15.353Z,4.22
2018-03-21T02:49:50.067Z,4.95
2018-03-21T02:50:26.644Z,6.03
2018-03-21T02:51:00.320Z,6.15
2018-03-21T02:51:34.585Z,6.22
2018-03-21T02:52:08.597Z,5.75
2018-03-21T02:52:42.460Z,4.22
2018-03-21T02:53:16.403Z,8.40
2018-03-21T02:53:50.933Z,5.22
2018-03-21T02:54:25.593Z,6.35
2018-03-21T02:54:59.080Z,4.10
2018-03-21T02:55:32.953Z,4.80
2018-03-21T02:56:06.700Z,7.20
2018-03-21T02:56:41.138Z,6.40
2018-03-21T02:57:14.799Z,6.93
2018-03-21T02:57:49.241Z,4.22
2018-03-21T02:58:22.980Z,6.40
2018-03-21T02:58:57.656Z,8.60
2018-03-21T02:59:31.332Z,4.40
2018-03-21T03:00:04.322Z,9.98
2018-03-21T03:00:37.996Z,8.20
2018-03-21T03:01:11.648Z,9.25
2018-03-21T03:01:46.079Z,6.95
2018-03-21T03:02:19.771Z,5.40
2018-03-21T03:02:53.465Z,6.97
2018-03-21T03:03:27.171Z,4.15
2018-03-21T03:04:00.841Z,4.95
2018-03-21T03:04:34.515Z,5.85
2018-03-21T03:05:08.193Z,11.93
2018-03-21T03:05:42.637Z,4.68
2018-03-21T03:06:16.334Z,6.28
2018-03-21T03:06:50.026Z,5.62
2018-03-21T03:07:23.700Z,10.82
2018-03-21T03:07:57.365Z,8.95
2018-03-21T03:08:31.830Z,8.32
2018-03-21T03:09:06.068Z,5.45
2018-03-21T03:09:40.496Z,7.57
2018-03-21T03:10:14.190Z,7.45
2018-03-21T03:10:47.851Z,6.07
2018-03-21T03:11:22.298Z,9.13
2018-03-21T03:11:55.967Z,6.72
2018-03-21T03:12:29.665Z,7.78
2018-03-21T03:13:03.334Z,9.02
2018-03-21T03:13:37.774Z,8.25
2018-03-21T03:14:11.436Z,7.93
2018-03-21T03:14:45.881Z,10.27
2018-03-21T03:15:19.575Z,9.57
2018-03-21T03:15:53.260Z,10.13
2018-03-21T03:16:26.948Z,13.23
2018-03-21T03:17:00.771Z,14.43
2018-03-21T03:17:34.450Z,13.60
2018-03-21T03:18:08.118Z,14.73
2018-03-21T03:18:41.940Z,17.98
2018-03-21T03:19:15.616Z,10.30
2018-03-21T03:19:49.279Z,15.63
2018-03-21T03:20:22.938Z,11.30
2018-03-21T03:20:57.374Z,14.32
2018-03-21T03:21:31.060Z,14.80
2018-03-21T03:22:04.735Z,12.37
2018-03-21T03:22:39.185Z,11.77
2018-03-21T03:23:12.855Z,9.27
2018-03-21T03:23:46.939Z,13.00
2018-03-21T03:24:20.627Z,12.98
2018-03-21T03:24:54.309Z,11.55
2018-03-21T03:25:28.404Z,11.18
2018-03-21T03:26:02.854Z,13.40
2018-03-21T03:26:36.519Z,9.85
2018-03-21T03:27:10.187Z,9.63
2018-03-21T03:27:44.618Z,10.20
2018-03-21T03:28:18.290Z,12.85
2018-03-21T03:28:51.986Z,14.32
2018-03-21T03:29:25.663Z,19.15
2018-03-21T03:30:00.107Z,12.43
2018-03-21T03:30:33.794Z,15.25
2018-03-21T03:31:07.461Z,12.40
2018-03-21T03:31:41.136Z,16.92
2018-03-21T03:32:15.570Z,18.55
2018-03-21T03:32:49.241Z,15.13
2018-03-21T03:33:23.677Z,12.57
2018-03-21T03:33:57.488Z,11.00
2018-03-21T03:34:31.154Z,9.35
2018-03-21T03:35:04.499Z,12.50
2018-03-21T03:35:38.929Z,13.48
2018-03-21T03:36:12.610Z,11.07
2018-03-21T03:36:47.051Z,13.70
2018-03-21T03:37:20.717Z,12.88
2018-03-21T03:37:54.465Z,14.07
2018-03-21T03:38:28.133Z,12.30
2018-03-21T03:39:01.823Z,12.50
2018-03-21T03:39:35.483Z,8.32
2018-03-21T03:40:09.146Z,11.50
2018-03-21T03:40:43.580Z,10.88
2018-03-21T03:41:17.246Z,10.65
2018-03-21T03:41:51.663Z,9.23
2018-03-21T03:42:25.364Z,15.40
2018-03-21T03:42:59.060Z,9.77
2018-03-21T03:43:32.726Z,12.37
2018-03-21T03:44:07.532Z,11.98
2018-03-21T03:44:41.203Z,9.85
2018-03-21T03:45:14.863Z,8.50
2018-03-21T03:45:48.548Z,11.07
2018-03-21T03:46:21.885Z,14.63
2018-03-21T03:46:56.320Z,10.82
2018-03-21T03:47:29.991Z,10.55
2018-03-21T03:48:04.443Z,10.23
2018-03-21T03:48:38.122Z,15.95
2018-03-21T03:49:11.978Z,6.72
2018-03-21T03:49:46.411Z,14.10
2018-03-21T03:50:20.071Z,13.27
2018-03-21T03:50:54.225Z,6.68
2018-03-21T03:51:27.911Z,14.95
2018-03-21T03:52:01.590Z,10.18
2018-03-21T03:52:35.255Z,6.00
2018-03-21T03:53:08.921Z,6.15
2018-03-21T03:53:42.571Z,7.60
2018-03-21T03:54:16.249Z,8.77
2018-03-21T03:54:49.911Z,7.87
2018-03-21T03:55:23.990Z,12.55
2018-03-21T03:55:58.421Z,6.80
2018-03-21T03:56:32.088Z,14.98
2018-03-21T03:57:06.522Z,15.82
2018-03-21T03:57:40.287Z,6.70
2018-03-21T03:58:14.860Z,6.50
2018-03-21T03:58:48.610Z,6.35
2018-03-21T03:59:22.334Z,5.97
2018-03-21T03:59:56.324Z,7.18
2018-03-21T04:00:29.992Z,8.30
2018-03-21T04:01:03.336Z,4.22
2018-03-21T04:01:37.843Z,8.18
2018-03-21T04:02:11.184Z,10.00
2018-03-21T04:02:44.855Z,12.05
2018-03-21T04:03:18.531Z,8.38
2018-03-21T04:03:52.956Z,6.47
2018-03-21T04:04:26.950Z,9.63
2018-03-21T04:05:00.646Z,8.20
2018-03-21T04:05:35.105Z,4.15
2018-03-21T04:06:08.767Z,11.12
2018-03-21T04:06:42.121Z,8.73
2018-03-21T04:07:15.793Z,7.95
2018-03-21T04:07:50.248Z,9.40
2018-03-21T04:08:23.933Z,8.30
2018-03-21T04:08:57.617Z,11.23
2018-03-21T04:09:31.689Z,13.77
2018-03-21T04:10:04.721Z,13.07
2018-03-21T04:10:38.387Z,6.93
2018-03-21T04:11:12.067Z,12.63
2018-03-21T04:11:45.737Z,6.15
2018-03-21T04:12:19.407Z,6.85
2018-03-21T04:12:53.857Z,9.77
2018-03-21T04:13:27.543Z,4.47
2018-03-21T04:14:01.213Z,6.30
2018-03-21T04:14:35.291Z,7.05
2018-03-21T04:15:09.725Z,6.18
2018-03-21T04:15:43.403Z,6.93
2018-03-21T04:16:17.835Z,10.05
2018-03-21T04:16:51.489Z,8.98
2018-03-21T04:17:25.941Z,8.43
2018-03-21T04:17:59.296Z,10.32
2018-03-21T04:18:32.971Z,5.72
2018-03-21T04:19:07.417Z,8.73
2018-03-21T04:19:41.189Z,6.60
2018-03-21T04:20:14.675Z,12.18
2018-03-21T04:20:48.153Z,6.28
2018-03-21T04:21:22.589Z,8.35
2018-03-21T04:21:56.255Z,9.57
2018-03-21T04:22:29.744Z,8.30
2018-03-21T04:23:03.419Z,4.95
2018-03-21T04:23:37.849Z,9.75
2018-03-21T04:24:11.327Z,7.60
2018-03-21T04:24:45.317Z,6.75
2018-03-21T04:25:19.040Z,5.30
2018-03-21T04:25:52.723Z,14.68
2018-03-21T04:26:26.394Z,4.68
2018-03-21T04:27:00.075Z,5.12
2018-03-21T04:27:33.751Z,9.00
2018-03-21T04:28:08.194Z,5.45
2018-03-21T04:28:41.872Z,10.10
2018-03-21T04:29:15.546Z,8.05
2018-03-21T04:29:49.981Z,8.88
2018-03-21T04:30:23.661Z,8.90
2018-03-21T04:30:57.329Z,4.85
2018-03-21T04:31:31.002Z,9.15
2018-03-21T04:32:05.424Z,8.18
2018-03-21T04:32:39.091Z,7.80
2018-03-21T04:33:13.537Z,8.55
2018-03-21T04:33:47.202Z,7.78
2018-03-21T04:34:21.623Z,9.95
2018-03-21T04:34:55.349Z,6.35
2018-03-21T04:35:29.037Z,10.82
2018-03-21T04:36:02.723Z,6.55
2018-03-21T04:36:36.386Z,9.25
2018-03-21T04:37:09.873Z,10.23
2018-03-21T04:37:43.547Z,5.62
2018-03-21T04:38:17.979Z,5.80
2018-03-21T04:38:51.685Z,12.15
2018-03-21T04:39:25.384Z,8.75
2018-03-21T04:39:59.301Z,8.65
2018-03-21T04:40:34.482Z,13.98
2018-03-21T04:41:07.968Z,6.80
2018-03-21T04:41:41.439Z,9.88
2018-03-21T04:42:15.110Z,17.25
2018-03-21T04:42:49.556Z,7.50
2018-03-21T04:43:23.219Z,6.28
2018-03-21T04:43:56.894Z,7.62
2018-03-21T04:44:30.557Z,9.25
2018-03-21T04:45:04.243Z,7.68
2018-03-21T04:45:37.725Z,6.72
2018-03-21T04:46:11.220Z,7.10
2018-03-21T04:46:44.699Z,9.00
2018-03-21T04:47:18.038Z,12.75
2018-03-21T04:47:51.517Z,5.30
2018-03-21T04:48:24.999Z,13.35
2018-03-21T04:48:58.485Z,9.63
2018-03-21T04:49:31.953Z,8.32
2018-03-21T04:50:06.212Z,9.80
2018-03-21T04:50:39.682Z,8.57
2018-03-21T04:51:13.188Z,12.98
2018-03-21T04:51:46.875Z,8.60
2018-03-21T04:52:20.361Z,7.45
2018-03-21T04:52:53.849Z,11.18
2018-03-21T04:53:27.507Z,9.13
2018-03-21T04:54:00.985Z,8.27
2018-03-21T04:54:34.485Z,7.32
2018-03-21T04:55:08.195Z,6.62
2018-03-21T04:55:41.914Z,8.52
2018-03-21T04:56:16.343Z,9.30
2018-03-21T04:56:50.001Z,6.90
2018-03-21T04:57:23.493Z,11.32
2018-03-21T04:57:56.991Z,7.90
2018-03-21T04:58:30.923Z,7.03
2018-03-21T04:59:04.602Z,10.50
2018-03-21T04:59:38.097Z,9.20
2018-03-21T05:00:11.479Z,12.50
2018-03-21T05:00:45.147Z,9.57
2018-03-21T05:01:18.813Z,6.68
2018-03-21T05:01:52.496Z,10.15
2018-03-21T05:02:26.933Z,11.48
2018-03-21T05:03:00.615Z,6.72
2018-03-21T05:03:35.081Z,7.25
2018-03-21T05:04:08.752Z,11.10
2018-03-21T05:04:42.251Z,12.85
2018-03-21T05:05:15.861Z,8.30
2018-03-21T05:05:49.508Z,8.13
2018-03-21T05:06:24.055Z,17.52
2018-03-21T05:06:57.549Z,11.15
2018-03-21T05:07:31.206Z,7.90
2018-03-21T05:08:04.911Z,8.27
2018-03-21T05:08:38.589Z,10.15
2018-03-21T05:09:12.259Z,12.13
2018-03-21T05:09:45.739Z,8.43
2018-03-21T05:10:19.441Z,9.40
2018-03-21T05:10:53.098Z,9.73
2018-03-21T05:11:26.609Z,10.57
2018-03-21T05:12:00.263Z,11.32
2018-03-21T05:12:34.691Z,9.93
2018-03-21T05:13:08.364Z,8.27
2018-03-21T05:13:42.807Z,10.52
2018-03-21T05:14:16.483Z,10.35
2018-03-21T05:14:50.167Z,11.50
2018-03-21T05:15:23.686Z,9.90
2018-03-21T05:15:57.331Z,7.60
2018-03-21T05:16:31.014Z,14.57
2018-03-21T05:17:05.447Z,13.00
2018-03-21T05:17:39.116Z,11.70
2018-03-21T05:18:13.553Z,8.40
2018-03-21T05:18:47.226Z,7.22
2018-03-21T05:19:20.900Z,15.35
2018-03-21T05:19:55.365Z,11.12
2018-03-21T05:20:29.296Z,8.18
2018-03-21T05:21:03.755Z,8.95
2018-03-21T05:21:37.422Z,13.20
2018-03-21T05:22:11.103Z,10.40
2018-03-21T05:22:44.771Z,13.98
2018-03-21T05:23:19.213Z,10.45
2018-03-21T05:23:52.913Z,11.65
2018-03-21T05:24:26.605Z,13.32
2018-03-21T05:25:00.275Z,6.82
2018-03-21T05:25:34.347Z,8.60
2018-03-21T05:26:08.787Z,10.63
2018-03-21T05:26:42.470Z,9.93
2018-03-21T05:27:16.142Z,8.95
2018-03-21T05:27:50.582Z,9.77
2018-03-21T05:28:24.264Z,11.43
2018-03-21T05:28:57.943Z,10.85
2018-03-21T05:29:31.612Z,9.15
2018-03-21T05:30:06.073Z,10.00
2018-03-21T05:30:39.793Z,12.95
2018-03-21T05:31:13.466Z,7.20
2018-03-21T05:31:47.119Z,10.27
2018-03-21T05:32:20.777Z,8.02
2018-03-21T05:32:55.235Z,11.27
2018-03-21T05:33:28.912Z,10.55
2018-03-21T05:34:02.577Z,7.50
2018-03-21T05:34:36.239Z,7.93
2018-03-21T05:35:09.914Z,10.38
2018-03-21T05:35:43.591Z,12.32
2018-03-21T05:36:17.260Z,9.80
2018-03-21T05:36:50.744Z,15.88
2018-03-21T05:37:24.452Z,10.02
2018-03-21T05:37:58.141Z,10.57
2018-03-21T05:38:31.827Z,9.15
2018-03-21T05:39:04.845Z,10.75
2018-03-21T05:39:39.298Z,13.48
2018-03-21T05:40:12.975Z,10.93
2018-03-21T05:40:46.676Z,10.15
2018-03-21T05:41:20.397Z,9.85
2018-03-21T05:41:54.227Z,8.57
2018-03-21T05:42:28.661Z,13.23
2018-03-21T05:43:02.347Z,13.90
2018-03-21T05:43:36.023Z,16.02
2018-03-21T05:44:09.703Z,14.35
2018-03-21T05:44:43.382Z,17.48
2018-03-21T05:45:17.825Z,15.55
2018-03-21T05:45:51.525Z,16.40
2018-03-21T05:46:25.215Z,17.02
2018-03-21T05:46:58.913Z,22.62
2018-03-21T05:47:32.596Z,26.27
2018-03-21T05:48:06.316Z,24.20
2018-03-21T05:48:40.152Z,26.40
2018-03-21T05:49:13.646Z,20.27
2018-03-21T05:49:47.315Z,27.58
2018-03-21T05:50:20.993Z,21.30
2018-03-21T05:50:55.478Z,24.73
2018-03-21T05:51:29.178Z,23.35
2018-03-21T05:52:03.646Z,26.40
2018-03-21T05:52:38.764Z,29.48
2018-03-21T05:53:12.444Z,29.23
2018-03-21T05:53:46.137Z,27.37
2018-03-21T05:54:19.825Z,27.98
2018-03-21T05:54:53.505Z,30.10
2018-03-21T05:55:27.171Z,28.40
2018-03-21T05:56:01.640Z,33.58
2018-03-21T05:56:35.387Z,27.10
2018-03-21T05:57:09.063Z,30.33
2018-03-21T05:57:43.502Z,31.70
2018-03-21T05:58:17.168Z,34.25
2018-03-21T05:58:50.864Z,22.33
2018-03-21T05:59:24.549Z,23.58
2018-03-21T05:59:59.004Z,33.72
2018-03-21T06:00:32.684Z,35.65
2018-03-21T06:01:06.382Z,30.58
2018-03-21T06:01:39.730Z,31.10
2018-03-21T06:02:13.406Z,30.15
2018-03-21T06:02:47.859Z,34.42
2018-03-21T06:03:21.553Z,34.70
2018-03-21T06:03:55.308Z,37.35
2018-03-21T06:04:28.998Z,32.85
2018-03-21T06:05:02.676Z,24.58
2018-03-21T06:05:37.866Z,27.48
2018-03-21T06:06:11.576Z,24.42
2018-03-21T06:06:45.274Z,24.15
2018-03-21T06:07:19.744Z,27.23
2018-03-21T06:07:54.389Z,23.15
2018-03-21T06:08:28.203Z,15.85
2018-03-21T06:09:01.888Z,20.42
2018-03-21T06:09:35.575Z,17.23
2018-03-21T06:10:09.256Z,19.80
2018-03-21T06:10:43.729Z,15.95
2018-03-21T06:11:17.426Z,12.98
2018-03-21T06:11:51.100Z,12.05
2018-03-21T06:12:24.779Z,16.15
2018-03-21T06:12:58.452Z,9.95
2018-03-21T06:13:32.133Z,12.65
2018-03-21T06:14:05.809Z,15.32
2018-03-21T06:14:40.250Z,15.32
2018-03-21T06:15:13.917Z,10.63
2018-03-21T06:15:47.607Z,12.77
2018-03-21T06:16:21.331Z,16.02
2018-03-21T06:16:55.026Z,14.43
2018-03-21T06:17:28.725Z,16.80
2018-03-21T06:18:02.411Z,14.02
2018-03-21T06:18:36.115Z,10.02
2018-03-21T06:19:09.779Z,10.07
2018-03-21T06:19:43.458Z,11.95
2018-03-21T06:20:17.118Z,10.10
2018-03-21T06:20:51.551Z,10.10
2018-03-21T06:21:25.033Z,9.40
2018-03-21T06:21:58.714Z,13.70
2018-03-21T06:22:32.360Z,8.65
2018-03-21T06:23:06.034Z,11.98
2018-03-21T06:23:39.513Z,11.60
2018-03-21T06:24:13.212Z,10.00
2018-03-21T06:24:46.882Z,12.52
2018-03-21T06:25:20.546Z,13.52
2018-03-21T06:25:54.227Z,11.35
2018-03-21T06:26:29.374Z,14.80
2018-03-21T06:27:03.041Z,12.82
2018-03-21T06:27:36.723Z,15.18
2018-03-21T06:28:11.172Z,12.23
2018-03-21T06:28:50.646Z,11.25
2018-03-21T06:29:25.076Z,12.43
2018-03-21T06:29:58.739Z,10.70
2018-03-21T06:30:33.172Z,12.95
2018-03-21T06:31:06.835Z,11.60
2018-03-21T06:31:40.348Z,12.90
2018-03-21T06:32:14.037Z,16.55
2018-03-21T06:32:47.712Z,21.62
2018-03-21T06:33:22.266Z,12.27
2018-03-21T06:33:55.980Z,16.67
2018-03-21T06:34:29.662Z,10.32
2018-03-21T06:35:03.336Z,12.90
2018-03-21T06:35:36.996Z,13.15
2018-03-21T06:36:10.664Z,10.80
2018-03-21T06:36:45.118Z,11.52
2018-03-21T06:37:18.796Z,15.32
2018-03-21T06:37:52.463Z,10.55
2018-03-21T06:38:26.134Z,11.32
2018-03-21T06:38:59.803Z,13.68
2018-03-21T06:39:33.502Z,15.82
2018-03-21T06:40:06.982Z,13.05
2018-03-21T06:40:41.512Z,12.37
2018-03-21T06:41:16.131Z,17.80
2018-03-21T06:41:50.584Z,14.10
2018-03-21T06:42:24.256Z,13.10
2018-03-21T06:42:57.923Z,11.25
2018-03-21T06:43:31.585Z,15.77
2018-03-21T06:44:05.286Z,15.15
2018-03-21T06:44:39.766Z,13.15
2018-03-21T06:45:14.356Z,15.20
2018-03-21T06:45:48.031Z,13.43
2018-03-21T06:46:21.711Z,13.02
2018-03-21T06:46:55.410Z,16.30
2018-03-21T06:47:29.080Z,12.65
2018-03-21T06:48:03.527Z,13.57
2018-03-21T06:48:37.212Z,15.05
2018-03-21T06:49:10.874Z,12.48
2018-03-21T06:49:44.530Z,14.40
2018-03-21T06:50:18.214Z,17.77
2018-03-21T06:50:51.563Z,14.57
2018-03-21T06:51:25.258Z,13.73
2018-03-21T06:51:58.940Z,11.70
2018-03-21T06:52:32.607Z,10.40
2018-03-21T06:53:06.284Z,13.57
2018-03-21T06:53:40.725Z,13.05
2018-03-21T06:54:14.401Z,12.75
2018-03-21T06:54:48.065Z,11.25
2018-03-21T06:55:22.502Z,28.17
2018-03-21T06:55:56.296Z,16.92
2018-03-21T06:56:29.996Z,21.12
2018-03-21T06:57:03.668Z,14.95
2018-03-21T06:57:37.346Z,11.93
2018-03-21T06:58:11.784Z,14.85
2018-03-21T06:58:45.480Z,12.43
2018-03-21T06:59:19.167Z,13.77
2018-03-21T06:59:52.848Z,13.15
2018-03-21T07:00:26.524Z,15.73
2018-03-21T07:01:00.204Z,12.27
2018-03-21T07:01:34.842Z,12.93
2018-03-21T07:02:08.512Z,14.30
2018-03-21T07:02:42.190Z,13.85
2018-03-21T07:03:16.617Z,11.23
2018-03-21T07:03:50.303Z,12.95
2018-03-21T07:04:23.991Z,14.35
2018-03-21T07:04:58.418Z,15.95
2018-03-21T07:05:32.082Z,10.57
2018-03-21T07:06:05.428Z,10.95
2018-03-21T07:06:39.435Z,9.10
2018-03-21T07:07:13.104Z,9.98
2018-03-21T07:07:46.782Z,15.45
2018-03-21T07:08:20.461Z,13.65
2018-03-21T07:08:54.122Z,9.38
2018-03-21T07:09:27.785Z,15.48
2018-03-21T07:10:02.214Z,14.87
2018-03-21T07:10:35.982Z,12.75
2018-03-21T07:11:10.424Z,15.05
2018-03-21T07:11:44.126Z,12.05
2018-03-21T07:12:17.818Z,15.15
2018-03-21T07:12:51.494Z,14.40
2018-03-21T07:13:24.496Z,12.40
2018-03-21T07:14:09.440Z,13.73
2018-03-21T07:14:54.352Z,9.30
2018-03-21T07:15:39.866Z,13.13
2018-03-21T07:16:24.556Z,13.18
2018-03-21T07:16:59.009Z,13.18
2018-03-21T07:17:32.712Z,12.93
2018-03-21T07:18:06.544Z,19.25
2018-03-21T07:18:40.270Z,9.93
2018-03-21T07:19:13.932Z,9.63
2018-03-21T07:19:48.354Z,18.10
2018-03-21T07:20:22.018Z,12.50
2018-03-21T07:20:56.462Z,16.90
2018-03-21T07:21:30.112Z,9.73
2018-03-21T07:22:03.476Z,10.60
2018-03-21T07:22:37.178Z,14.98
2018-03-21T07:23:10.853Z,14.68
2018-03-21T07:23:44.345Z,9.48
2018-03-21T07:24:18.006Z,13.02
2018-03-21T07:24:51.490Z,9.90
2018-03-21T07:25:25.156Z,14.93
2018-03-21T07:25:58.830Z,10.43
2018-03-21T07:26:33.268Z,13.68
2018-03-21T07:27:06.958Z,15.30